• Join FlightAware (Why Join?)
  • Login
  • US Flag 
10:08AM EDT


 

Airport Tracker/Info


-or-


 

Live Flight TrackerFlight Track Log ✈ UAL33 ✈ 20-Nov-2013 ✈ RJAA / NRT - KLAX

Flight Track Log - Related Links

Times and Time Zones

All times are in EST time to prevent confusion due to time zone crossing. See the UAL33 flight status page for this flight to view local times or setup timezone preferences in your user account.

Time Position Orientation Groundspeed Altitude Reporting Facility
EST Latitude Longitude Course Direction KTS MPH feet Rate Location/Type
04:49AM 36.0129 140.8573 57° Northeast  Level FlightAware Approximate
04:50AM 36.0952 141.0149 57° Northeast  Level FlightAware Approximate
04:51AM 36.1773 141.1729 57° Northeast  Level FlightAware Approximate
04:52AM 36.2592 141.3312 57° Northeast  Level FlightAware Approximate
04:53AM 36.3409 141.4898 57° Northeast  Level FlightAware Approximate
04:54AM 36.4224 141.6488 57° Northeast  Level FlightAware Approximate
04:55AM 36.5037 141.8080 58° Northeast  Level FlightAware Approximate
04:56AM 36.5847 141.9677 58° Northeast  Level FlightAware Approximate
04:57AM 36.6655 142.1276 58° Northeast  Level FlightAware Approximate
04:58AM 36.7462 142.2879 58° Northeast  Level FlightAware Approximate
04:59AM 36.8266 142.4485 58° Northeast  Level FlightAware Approximate
05:00AM 36.9068 142.6095 58° Northeast  Level FlightAware Approximate
05:01AM 36.9884 142.7695 58° Northeast  Level Estimated
05:02AM 37.0679 142.9314 58° Northeast  Level FlightAware Approximate
05:03AM 37.1472 143.0935 58° Northeast  Level FlightAware Approximate
05:04AM 37.2263 143.2560 59° Northeast  Level FlightAware Approximate
05:05AM 37.3051 143.4189 59° Northeast  Level FlightAware Approximate
05:06AM 37.3838 143.5821 59° Northeast  Level FlightAware Approximate
05:07AM 37.4622 143.7457 59° Northeast  Level FlightAware Approximate
05:08AM 37.5423 143.9080 59° Northeast  Level Estimated
05:09AM 37.6203 144.0722 59° Northeast  Level FlightAware Approximate
05:10AM 37.6982 144.2367 59° Northeast  Level FlightAware Approximate
05:11AM 37.7758 144.4015 59° Northeast  Level FlightAware Approximate
05:12AM 37.8531 144.5667 59° Northeast  Level FlightAware Approximate
05:13AM 37.9303 144.7323 59° Northeast  Level FlightAware Approximate
05:14AM 38.0072 144.8981 59° Northeast  Level FlightAware Approximate
05:15AM 38.0839 145.0644 60° Northeast  Level FlightAware Approximate
05:16AM 38.1603 145.2310 60° Northeast  Level FlightAware Approximate
05:17AM 38.2365 145.3979 60° Northeast  Level FlightAware Approximate
05:18AM 38.3124 145.5652 60° Northeast  Level FlightAware Approximate
05:19AM 38.3882 145.7328 60° Northeast  Level FlightAware Approximate
05:20AM 38.4634 145.9001 60° Northeast  Level FlightAware Approximate
05:21AM 38.5383 146.0678 60° Northeast  Level FlightAware Approximate
05:22AM 38.6130 146.2359 60° Northeast  Level FlightAware Approximate
05:23AM 38.6875 146.4043 60° Northeast  Level FlightAware Approximate
05:24AM 38.7618 146.5730 61° Northeast  Level FlightAware Approximate
05:25AM 38.8358 146.7421 61° Northeast  Level FlightAware Approximate
05:26AM 38.9095 146.9115 61° Northeast  Level FlightAware Approximate
05:27AM 38.9830 147.0813 61° Northeast  Level FlightAware Approximate
05:28AM 39.0563 147.2514 61° Northeast  Level FlightAware Approximate
05:29AM 39.1293 147.4220 61° Northeast  Level FlightAware Approximate
05:30AM 39.2020 147.5928 61° Northeast  Level FlightAware Approximate
05:31AM 39.2745 147.7640 61° Northeast  Level FlightAware Approximate
05:32AM 39.3468 147.9356 61° Northeast  Level FlightAware Approximate
05:33AM 39.4188 148.1075 61° Northeast  Level FlightAware Approximate
05:34AM 39.4906 148.2797 62° Northeast  Level FlightAware Approximate
05:35AM 39.5621 148.4524 62° Northeast  Level FlightAware Approximate
05:36AM 39.6333 148.6253 62° Northeast  Level FlightAware Approximate
05:37AM 39.7043 148.7987 62° Northeast  Level FlightAware Approximate
05:38AM 39.7750 148.9724 62° Northeast  Level FlightAware Approximate
05:39AM 39.8455 149.1464 62° Northeast  Level FlightAware Approximate
05:40AM 39.9157 149.3208 62° Northeast  Level FlightAware Approximate
05:41AM 39.9856 149.4956 62° Northeast  Level FlightAware Approximate
05:42AM 40.0553 149.6707 62° Northeast  Level FlightAware Approximate
05:43AM 40.1247 149.8462 63° Northeast  Level FlightAware Approximate
05:44AM 40.1939 150.0220 63° Northeast  Level FlightAware Approximate
05:45AM 40.2628 150.1982 63° Northeast  Level FlightAware Approximate
05:46AM 40.3314 150.3747 63° Northeast  Level FlightAware Approximate
05:47AM 40.3998 150.5517 63° Northeast  Level FlightAware Approximate
05:48AM 40.4678 150.7289 63° Northeast  Level FlightAware Approximate
05:49AM 40.5356 150.9066 63° Northeast  Level FlightAware Approximate
05:50AM 40.6032 151.0845 63° Northeast  Level FlightAware Approximate
05:51AM 40.6704 151.2629 64° Northeast  Level FlightAware Approximate
05:52AM 40.7374 151.4416 64° Northeast  Level FlightAware Approximate
05:53AM 40.8041 151.6207 64° Northeast  Level FlightAware Approximate
05:54AM 40.8706 151.8001 64° Northeast  Level FlightAware Approximate
05:55AM 40.9367 151.9798 64° Northeast  Level FlightAware Approximate
05:56AM 41.0026 152.1600 64° Northeast  Level FlightAware Approximate
05:57AM 41.0682 152.3405 64° Northeast  Level FlightAware Approximate
05:58AM 41.1335 152.5213 64° Northeast  Level FlightAware Approximate
05:59AM 41.2006 152.7013 65° Northeast  Level Estimated
06:00AM 41.2653 152.8829 65° Northeast  Level FlightAware Approximate
06:01AM 41.3297 153.0648 65° Northeast  Level FlightAware Approximate
06:02AM 41.3938 153.2472 65° Northeast  Level FlightAware Approximate
06:03AM 41.4577 153.4299 65° Northeast  Level FlightAware Approximate
06:04AM 41.5213 153.6129 65° Northeast  Level FlightAware Approximate
06:05AM 41.5845 153.7963 65° Northeast  Level FlightAware Approximate
06:06AM 41.6475 153.9801 65° Northeast  Level FlightAware Approximate
06:07AM 41.7102 154.1642 65° Northeast  Level FlightAware Approximate
06:08AM 41.7726 154.3487 66° East  Level FlightAware Approximate
06:09AM 41.8347 154.5335 66° East  Level FlightAware Approximate
06:10AM 41.8965 154.7187 66° East  Level FlightAware Approximate
06:11AM 41.9601 154.9030 66° East  Level Estimated
06:12AM 42.0213 155.0889 66° East  Level FlightAware Approximate
06:13AM 42.0822 155.2751 66° East  Level FlightAware Approximate
06:14AM 42.1428 155.4618 66° East  Level FlightAware Approximate
06:15AM 42.2032 155.6487 66° East  Level FlightAware Approximate
06:16AM 42.2632 155.8361 67° East  Level FlightAware Approximate
06:17AM 42.3229 156.0238 67° East  Level FlightAware Approximate
06:18AM 42.3823 156.2118 67° East  Level FlightAware Approximate
06:19AM 42.4414 156.4002 67° East  Level FlightAware Approximate
06:20AM 42.5002 156.5889 67° East  Level FlightAware Approximate
06:21AM 42.5587 156.7781 67° East  Level FlightAware Approximate
06:22AM 42.6168 156.9675 67° East  Level FlightAware Approximate
06:23AM 42.6747 157.1573 67° East  Level FlightAware Approximate
06:24AM 42.7322 157.3475 68° East  Level FlightAware Approximate
06:25AM 42.7894 157.5380 68° East  Level FlightAware Approximate
06:26AM 42.8464 157.7289 68° East  Level FlightAware Approximate
06:27AM 42.9029 157.9201 68° East  Level FlightAware Approximate
06:28AM 42.9592 158.1117 68° East  Level FlightAware Approximate
06:29AM 43.0152 158.3036 68° East  Level FlightAware Approximate
06:30AM 43.0708 158.4959 68° East  Level FlightAware Approximate
06:31AM 43.1261 158.6885 68° East  Level FlightAware Approximate
06:32AM 43.1811 158.8815 69° East  Level FlightAware Approximate
06:33AM 43.2357 159.0748 69° East  Level FlightAware Approximate
06:34AM 43.2901 159.2684 69° East  Level FlightAware Approximate
06:35AM 43.3441 159.4624 69° East  Level FlightAware Approximate
06:36AM 43.3978 159.6568 69° East  Level FlightAware Approximate
06:37AM 43.4511 159.8515 69° East  Level FlightAware Approximate
06:38AM 43.5041 160.0465 69° East  Level FlightAware Approximate
06:39AM 43.5568 160.2419 70° East  Level FlightAware Approximate
06:40AM 43.6091 160.4376 70° East  Level FlightAware Approximate
06:41AM 43.6612 160.6337 70° East  Level FlightAware Approximate
06:42AM 43.7128 160.8301 70° East  Level FlightAware Approximate
06:43AM 43.7642 161.0268 70° East  Level FlightAware Approximate
06:44AM 43.8152 161.2239 70° East  Level FlightAware Approximate
06:45AM 43.8658 161.4213 70° East  Level FlightAware Approximate
06:46AM 43.9162 161.6190 70° East  Level FlightAware Approximate
06:47AM 43.9662 161.8171 71° East  Level FlightAware Approximate
06:48AM 44.0158 162.0155 71° East  Level FlightAware Approximate
06:49AM 44.0651 162.2143 71° East  Level FlightAware Approximate
06:50AM 44.1141 162.4133 71° East  Level FlightAware Approximate
06:51AM 44.1627 162.6127 71° East  Level FlightAware Approximate
06:52AM 44.2109 162.8125 71° East  Level FlightAware Approximate
06:53AM 44.2588 163.0125 71° East  Level FlightAware Approximate
06:54AM 44.3064 163.2129 72° East  Level FlightAware Approximate
06:55AM 44.3536 163.4136 72° East  Level FlightAware Approximate
06:56AM 44.4005 163.6146 72° East  Level FlightAware Approximate
06:57AM 44.4470 163.8160 72° East  Level FlightAware Approximate
06:58AM 44.4931 164.0177 72° East  Level FlightAware Approximate
06:59AM 44.5389 164.2196 72° East  Level FlightAware Approximate
07:00AM 44.5843 164.4219 72° East  Level FlightAware Approximate
07:01AM 44.6294 164.6246 73° East  Level FlightAware Approximate
07:02AM 44.6741 164.8275 73° East  Level FlightAware Approximate
07:02AM 40.6167 167.6500 77° East 612 704 38,000  Level Oakland Oceanic (ODAPS)
07:03AM 44.7185 165.0307 73° East  Level FlightAware Approximate
07:04AM 44.7625 165.2343 73° East  Level FlightAware Approximate
07:05AM 44.8061 165.4381 73° East  Level FlightAware Approximate
07:06AM 44.8494 165.6423 73° East  Level FlightAware Approximate
07:07AM 44.8923 165.8468 73° East  Level FlightAware Approximate
07:08AM 40.8661 169.1423 78° East 612 704 38,000  Level FlightAware Transoceanic
07:09AM 40.9002 169.3564 78° East 612 704 38,000  Level FlightAware Transoceanic
07:10AM 40.9339 169.5707 78° East 612 704 38,000  Level FlightAware Transoceanic
07:11AM 40.9671 169.7853 78° East 612 704 38,000  Level FlightAware Transoceanic
07:12AM 41.0000 170.0000 87° East 612 704 38,000  Level FlightAware Transoceanic
07:13AM 41.0090 170.2123 87° East 612 704 38,000  Level FlightAware Transoceanic
07:13AM 41.0167 170.2333 87° East 577 664 38,000  Level Oakland Oceanic (ODAPS)
07:14AM 41.0176 170.4247 87° East 612 704 38,000  Level FlightAware Transoceanic
07:15AM 41.0258 170.6372 87° East 612 704 38,000  Level FlightAware Transoceanic
07:15AM 41.0333 170.6667 87° East 606 697 38,000  Level Oakland Oceanic (ODAPS)
07:16AM 41.0337 170.8497 87° East 612 704 38,000  Level FlightAware Transoceanic
07:17AM 41.0411 171.0622 87° East 612 704 38,000  Level FlightAware Transoceanic
07:18AM 41.0482 171.2748 88° East 612 704 38,000  Level FlightAware Transoceanic
07:19AM 41.0613 171.5058 88° East 577 664 38,000  Level FlightAware Transoceanic
07:20AM 41.0674 171.7180 88° East 577 664 38,000  Level FlightAware Transoceanic
07:21AM 41.0732 171.9384 88° East 606 697 38,000  Level FlightAware Transoceanic
07:22AM 41.0784 172.1505 88° East 606 697 38,000  Level FlightAware Transoceanic
07:23AM 41.0833 172.3627 88° East 606 697 38,000  Level FlightAware Transoceanic
07:24AM 41.0878 172.5748 88° East 606 697 38,000  Level FlightAware Transoceanic
07:25AM 41.0919 172.7870 89° East 606 697 38,000  Level FlightAware Transoceanic
07:26AM 41.0957 172.9992 89° East 606 697 38,000  Level FlightAware Transoceanic
07:27AM 41.0990 173.2115 89° East 606 697 38,000  Level FlightAware Transoceanic
07:28AM 41.1019 173.4237 89° East 606 697 38,000  Level FlightAware Transoceanic
07:29AM 41.1045 173.6360 89° East 606 697 38,000  Level FlightAware Transoceanic
07:29AM 41.1000 173.7667 89° East 606 697 38,000  Level Oakland Oceanic (ODAPS)
07:30AM 41.1067 173.8483 89° East 606 697 38,000  Level FlightAware Transoceanic
07:31AM 41.1084 174.0606 89° East 606 697 38,000  Level FlightAware Transoceanic
07:32AM 41.1098 174.2729 90° East 606 697 38,000  Level FlightAware Transoceanic
07:33AM 41.1108 174.4852 90° East 606 697 38,000  Level FlightAware Transoceanic
07:34AM 41.1114 174.6975 90° East 606 697 38,000  Level FlightAware Transoceanic
07:35AM 41.1069 175.0143 90° East 606 697 38,000  Level FlightAware Transoceanic
07:36AM 41.1067 175.2223 90° East 606 697 38,000  Level FlightAware Transoceanic
07:37AM 41.1062 175.4303 90° East 606 697 38,000  Level FlightAware Transoceanic
07:38AM 41.1053 175.6382 90° East 606 697 38,000  Level FlightAware Transoceanic
07:39AM 41.1040 175.8462 91° East 606 697 38,000  Level FlightAware Transoceanic
07:40AM 41.1024 176.0541 91° East 606 697 38,000  Level FlightAware Transoceanic
07:41AM 41.1003 176.2620 91° East 606 697 38,000  Level FlightAware Transoceanic
07:42AM 41.0979 176.4699 91° East 606 697 38,000  Level FlightAware Transoceanic
07:43AM 41.0952 176.6778 91° East 606 697 38,000  Level FlightAware Transoceanic
07:43AM 41.1000 176.8000 91° East 588 677 38,000  Level Oakland Oceanic (ODAPS)
07:44AM 41.0920 176.8857 91° East 606 697 38,000  Level FlightAware Transoceanic
07:45AM 41.0885 177.0936 91° East 606 697 38,000  Level FlightAware Transoceanic
07:46AM 41.0846 177.3014 91° East 606 697 38,000  Level FlightAware Transoceanic
07:47AM 41.0803 177.5092 92° East 606 697 38,000  Level FlightAware Transoceanic
07:48AM 41.0757 177.7170 92° East 606 697 38,000  Level FlightAware Transoceanic
07:49AM 41.0706 178.0811 92° East 588 677 38,000  Level FlightAware Transoceanic
07:50AM 41.0644 178.2945 92° East 588 677 38,000  Level FlightAware Transoceanic
07:51AM 41.0577 178.5079 92° East 588 677 38,000  Level FlightAware Transoceanic
07:52AM 41.0506 178.7212 93° East 588 677 38,000  Level FlightAware Transoceanic
07:53AM 41.0432 178.9345 93° East 588 677 38,000  Level FlightAware Transoceanic
07:54AM 41.0353 179.1477 93° East 588 677 38,000  Level FlightAware Transoceanic
07:55AM 41.0271 179.3609 93° East 588 677 38,000  Level FlightAware Transoceanic
07:56AM 41.0184 179.5740 93° East 588 677 38,000  Level FlightAware Transoceanic
07:56AM 41.0167 179.7333 95° East 568 654 38,000  Level Oakland Oceanic (ODAPS)
07:57AM 41.0094 179.7870 93° East 588 677 38,000  Level FlightAware Transoceanic
07:58AM 41.0000 -180.0000 87° East 588 677 38,000  Level FlightAware Transoceanic
07:58AM 41.0000 180.0000 87° East 563 648 38,000  Level Oakland Oceanic (ODAPS)
07:59AM 41.0083 -179.8043 87° East 588 677 38,000  Level FlightAware Transoceanic
08:00AM 41.0163 -179.6086 87° East 588 677 38,000  Level FlightAware Transoceanic
08:01AM 41.0239 -179.4128 87° East 588 677 38,000  Level FlightAware Transoceanic
08:02AM 41.0312 -179.2170 87° East 588 677 38,000  Level FlightAware Transoceanic
08:03AM 41.0382 -179.0212 87° East 568 654 38,000  Level FlightAware Transoceanic
08:04AM 41.0473 -178.7518 88° East 563 648 38,000  Level FlightAware Transoceanic
08:05AM 41.0539 -178.5436 88° East 563 648 38,000  Level FlightAware Transoceanic
08:06AM 41.0601 -178.3354 88° East 563 648 38,000  Level FlightAware Transoceanic
08:07AM 41.0659 -178.1271 88° East 563 648 38,000  Level FlightAware Transoceanic
08:08AM 41.0713 -177.9188 88° East 563 648 38,000  Level FlightAware Transoceanic
08:09AM 41.0764 -177.7104 88° East 563 648 38,000  Level FlightAware Transoceanic
08:10AM 41.0811 -177.5021 88° East 563 648 38,000  Level FlightAware Transoceanic
08:10AM 41.0833 -177.4500 88° East 553 636 38,000  Level Oakland Oceanic (ODAPS)
08:11AM 41.0854 -177.2937 88° East 563 648 38,000  Level FlightAware Transoceanic
08:12AM 41.0894 -177.0852 89° East 563 648 38,000  Level FlightAware Transoceanic
08:13AM 41.0930 -176.8768 89° East 563 648 38,000  Level FlightAware Transoceanic
08:14AM 41.0961 -176.6683 89° East 563 648 38,000  Level FlightAware Transoceanic
08:15AM 41.0990 -176.4598 89° East 563 648 38,000  Level FlightAware Transoceanic
08:16AM 41.1014 -176.2513 89° East 563 648 38,000  Level FlightAware Transoceanic
08:17AM 41.1028 -176.2079 89° East 553 636 38,000  Level FlightAware Transoceanic
08:18AM 41.1048 -176.0008 89° East 553 636 38,000  Level FlightAware Transoceanic
08:19AM 41.1063 -175.7937 89° East 553 636 38,000  Level FlightAware Transoceanic
08:20AM 41.1075 -175.5866 90° East 553 636 38,000  Level FlightAware Transoceanic
08:21AM 41.1084 -175.3795 90° East 553 636 38,000  Level FlightAware Transoceanic
08:22AM 41.1088 -175.1724 90° East 553 636 38,000  Level FlightAware Transoceanic
08:23AM 41.1089 -174.9652 90° East 553 636 38,000  Level FlightAware Transoceanic
08:24AM 41.1086 -174.7581 90° East 553 636 38,000  Level FlightAware Transoceanic
08:24AM 41.1000 -174.6667 90° East 543 625 38,000  Level Oakland Oceanic (ODAPS)
08:25AM 41.1080 -174.5510 90° East 553 636 38,000  Level FlightAware Transoceanic
08:26AM 41.1070 -174.3439 90° East 553 636 38,000  Level FlightAware Transoceanic
08:27AM 41.1056 -174.1368 91° East 553 636 38,000  Level FlightAware Transoceanic
08:28AM 41.1038 -173.9297 91° East 553 636 38,000  Level FlightAware Transoceanic
08:29AM 41.1017 -173.7226 91° East 553 636 38,000  Level FlightAware Transoceanic
08:30AM 41.0927 -173.4989 91° East 543 625 38,000  Level FlightAware Transoceanic
08:31AM 41.0903 -173.3043 91° East 543 625 38,000  Level FlightAware Transoceanic
08:32AM 41.0876 -173.1097 91° East 543 625 38,000  Level FlightAware Transoceanic
08:33AM 41.0846 -172.9151 91° East 543 625 38,000  Level FlightAware Transoceanic
08:34AM 41.0812 -172.7206 91° East 543 625 38,000  Level FlightAware Transoceanic
08:35AM 41.0775 -172.5261 92° East 543 625 38,000  Level FlightAware Transoceanic
08:36AM 41.0735 -172.3316 92° East 543 625 38,000  Level FlightAware Transoceanic
08:37AM 41.0692 -172.1371 92° East 543 625 38,000  Level FlightAware Transoceanic
08:38AM 41.0645 -171.9426 92° East 543 625 38,000 660 Level FlightAware Transoceanic
08:38AM 41.0667 -171.9500 92° East 534 615 39,000  Climbing Oakland Oceanic (ODAPS)
08:39AM 41.0596 -171.7482 92° East 543 625 38,000 -660 Descending FlightAware Transoceanic
08:40AM 41.0542 -171.5538 92° East 543 625 38,000  Level FlightAware Transoceanic
08:41AM 41.0486 -171.3595 92° East 543 625 38,000  Level FlightAware Transoceanic
08:42AM 41.0426 -171.1651 92° East 543 625 38,000  Level FlightAware Transoceanic
08:43AM 41.0364 -170.9708 93° East 543 625 38,000 480 Level FlightAware Transoceanic
08:44AM 41.0306 -170.7795 93° East 534 615 39,000 480 Climbing FlightAware Transoceanic
08:45AM 41.0234 -170.5846 93° East 534 615 39,000  Level FlightAware Transoceanic
08:46AM 41.0160 -170.3897 93° East 534 615 39,000  Level FlightAware Transoceanic
08:47AM 41.0081 -170.1948 93° East 534 615 39,000  Level FlightAware Transoceanic
08:48AM 41.0000 -170.0000 87° East 534 615 39,000  Level FlightAware Transoceanic
08:48AM 41.0000 -170.0000 87° East 530 610 39,000  Level Oakland Oceanic (ODAPS)
08:49AM 41.0081 -169.8081 87° East 534 615 39,000  Level FlightAware Transoceanic
08:50AM 41.0160 -169.6161 87° East 534 615 39,000  Level FlightAware Transoceanic
08:51AM 41.0235 -169.4241 87° East 534 615 39,000  Level FlightAware Transoceanic
08:52AM 41.0307 -169.2321 87° East 534 615 39,000  Level FlightAware Transoceanic
08:52AM 41.0333 -169.2500 87° East 522 601 39,000  Level Oakland Oceanic (ODAPS)
08:53AM 41.0376 -169.0400 87° East 534 615 39,000  Level FlightAware Transoceanic
08:54AM 41.0441 -168.8479 87° East 530 610 39,000  Level FlightAware Transoceanic
08:55AM 41.0504 -168.6557 88° East 530 610 39,000  Level FlightAware Transoceanic
08:56AM 41.0563 -168.4635 88° East 530 610 39,000  Level FlightAware Transoceanic
08:57AM 41.0619 -168.2713 88° East 530 610 39,000  Level FlightAware Transoceanic
08:58AM 41.0696 -168.0947 88° East 522 601 39,000  Level FlightAware Transoceanic
08:59AM 41.0746 -167.9020 88° East 522 601 39,000  Level FlightAware Transoceanic
09:00AM 41.0792 -167.7093 88° East 522 601 39,000  Level FlightAware Transoceanic
09:01AM 41.0835 -167.5166 88° East 522 601 39,000  Level FlightAware Transoceanic
09:02AM 41.0874 -167.3238 88° East 522 601 39,000  Level FlightAware Transoceanic
09:03AM 41.0911 -167.1310 89° East 522 601 39,000  Level FlightAware Transoceanic
09:04AM 41.0944 -166.9382 89° East 522 601 39,000  Level FlightAware Transoceanic
09:05AM 41.0974 -166.7454 89° East 522 601 39,000  Level FlightAware Transoceanic
09:06AM 41.1001 -166.5526 89° East 522 601 39,000  Level FlightAware Transoceanic
09:06AM 41.1000 -166.6167 89° East 519 597 39,000  Level Oakland Oceanic (ODAPS)
09:07AM 41.1025 -166.3598 89° East 522 601 39,000  Level FlightAware Transoceanic
09:08AM 41.1045 -166.1669 89° East 522 601 39,000  Level FlightAware Transoceanic
09:09AM 41.1062 -165.9740 89° East 522 601 39,000  Level FlightAware Transoceanic
09:10AM 41.1076 -165.7812 90° East 522 601 39,000  Level FlightAware Transoceanic
09:11AM 41.1087 -165.5883 90° East 522 601 39,000  Level FlightAware Transoceanic
09:12AM 41.1098 -165.4815 90° East 519 597 39,000  Level FlightAware Transoceanic
09:13AM 41.1103 -165.2923 90° East 519 597 39,000  Level FlightAware Transoceanic
09:14AM 41.1105 -165.1031 90° East 519 597 39,000  Level FlightAware Transoceanic
09:15AM 41.1105 -164.9139 90° East 519 597 39,000  Level FlightAware Transoceanic
09:16AM 41.1101 -164.7247 90° East 519 597 39,000  Level FlightAware Transoceanic
09:17AM 41.1094 -164.5355 90° East 519 597 39,000  Level FlightAware Transoceanic
09:18AM 41.1084 -164.3463 90° East 519 597 39,000  Level FlightAware Transoceanic
09:19AM 41.1071 -164.1571 91° East 519 597 39,000  Level FlightAware Transoceanic
09:20AM 41.1054 -163.9679 91° East 519 597 39,000  Level FlightAware Transoceanic
09:20AM 41.1000 -163.9833 91° East 519 597 39,000  Level Oakland Oceanic (ODAPS)
09:21AM 41.1035 -163.7787 91° East 519 597 39,000  Level FlightAware Transoceanic
09:22AM 41.1013 -163.5895 91° East 519 597 39,000  Level FlightAware Transoceanic
09:23AM 41.0987 -163.4004 91° East 519 597 39,000  Level FlightAware Transoceanic
09:24AM 41.0959 -163.2112 91° East 519 597 39,000  Level FlightAware Transoceanic
09:25AM 41.0927 -163.0221 91° East 519 597 39,000  Level FlightAware Transoceanic
09:26AM 41.0854 -162.8441 91° East 519 597 39,000  Level FlightAware Transoceanic
09:27AM 41.0819 -162.6543 91° East 519 597 39,000  Level FlightAware Transoceanic
09:28AM 41.0781 -162.4645 92° East 519 597 39,000  Level FlightAware Transoceanic
09:29AM 41.0739 -162.2748 92° East 519 597 39,000  Level FlightAware Transoceanic
09:30AM 41.0695 -162.0850 92° East 519 597 39,000  Level FlightAware Transoceanic
09:31AM 41.0647 -161.8953 92° East 519 597 39,000  Level FlightAware Transoceanic
09:32AM 41.0597 -161.7056 92° East 519 597 39,000  Level FlightAware Transoceanic
09:33AM 41.0543 -161.5159 92° East 519 597 39,000 480 Level FlightAware Transoceanic
09:33AM 41.0500 -161.3667 92° East 515 593 40,000  Climbing Oakland Oceanic (ODAPS)
09:34AM 41.0486 -161.3263 92° East 519 597 39,000 -960 Descending FlightAware Transoceanic
09:35AM 41.0426 -161.1367 92° East 519 597 39,000  Level FlightAware Transoceanic
09:36AM 41.0362 -160.9472 93° East 519 597 39,000  Level FlightAware Transoceanic
09:37AM 41.0296 -160.7577 93° East 519 597 39,000  Level FlightAware Transoceanic
09:38AM 41.0227 -160.5682 93° East 519 597 39,000  Level FlightAware Transoceanic
09:39AM 41.0154 -160.3788 93° East 519 597 39,000 480 Level FlightAware Transoceanic
09:40AM 41.0081 -160.1951 93° East 515 593 40,000 480 Climbing FlightAware Transoceanic
09:41AM 41.0000 -160.0000 87° East 515 593 40,000  Level FlightAware Transoceanic
09:41AM 41.0000 -160.0000 87° East 519 597 40,000  Level Oakland Oceanic (ODAPS)
09:42AM 41.0083 -159.8043 87° East 515 593 40,000  Level FlightAware Transoceanic
09:43AM 41.0163 -159.6086 87° East 515 593 40,000  Level FlightAware Transoceanic
09:44AM 41.0239 -159.4128 87° East 515 593 40,000  Level FlightAware Transoceanic
09:45AM 41.0312 -159.2170 87° East 515 593 40,000  Level FlightAware Transoceanic
09:46AM 41.0382 -159.0212 87° East 515 593 40,000  Level FlightAware Transoceanic
09:47AM 41.0441 -158.8479 87° East 519 597 40,000  Level FlightAware Transoceanic
09:47AM 41.0500 -158.7500 88° East 522 601 40,000  Level Oakland Oceanic (ODAPS)
09:48AM 41.0504 -158.6557 88° East 519 597 40,000  Level FlightAware Transoceanic
09:49AM 41.0563 -158.4635 88° East 519 597 40,000  Level FlightAware Transoceanic
09:50AM 41.0619 -158.2713 88° East 519 597 40,000  Level FlightAware Transoceanic
09:51AM 41.0672 -158.0790 88° East 519 597 40,000  Level FlightAware Transoceanic
09:52AM 41.0722 -157.8867 88° East 519 597 40,000  Level FlightAware Transoceanic
09:53AM 41.0768 -157.6944 88° East 519 597 40,000  Level FlightAware Transoceanic
09:54AM 41.0816 -157.5838 88° East 522 601 40,000  Level FlightAware Transoceanic
09:55AM 41.0857 -157.3893 88° East 522 601 40,000  Level FlightAware Transoceanic
09:56AM 41.0895 -157.1949 89° East 522 601 40,000  Level FlightAware Transoceanic
09:57AM 41.0930 -157.0004 89° East 522 601 40,000  Level FlightAware Transoceanic
09:58AM 41.0961 -156.8058 89° East 522 601 40,000  Level FlightAware Transoceanic
09:59AM 41.0990 -156.6113 89° East 522 601 40,000  Level FlightAware Transoceanic
10:00AM 41.1015 -156.4167 89° East 522 601 40,000  Level FlightAware Transoceanic
10:01AM 41.1036 -156.2221 89° East 522 601 40,000  Level FlightAware Transoceanic
10:01AM 41.1000 -156.1167 89° East 518 596 40,000  Level Oakland Oceanic (ODAPS)
10:02AM 41.1054 -156.0275 89° East 522 601 40,000  Level FlightAware Transoceanic
10:03AM 41.1069 -155.8329 89° East 522 601 40,000  Level FlightAware Transoceanic
10:04AM 41.1081 -155.6383 90° East 522 601 40,000  Level FlightAware Transoceanic
10:05AM 41.1090 -155.4437 90° East 522 601 40,000  Level FlightAware Transoceanic
10:06AM 41.1095 -155.2491 90° East 522 601 40,000  Level FlightAware Transoceanic
10:07AM 41.1097 -155.0545 90° East 522 601 40,000  Level FlightAware Transoceanic
10:08AM 41.1058 -154.8181 90° East 518 596 40,000  Level FlightAware Transoceanic
10:09AM 41.1055 -154.6326 90° East 518 596 40,000  Level FlightAware Transoceanic
10:10AM 41.1048 -154.4471 90° East 518 596 40,000  Level FlightAware Transoceanic
10:11AM 41.1039 -154.2616 90° East 518 596 40,000  Level FlightAware Transoceanic
10:12AM 41.1026 -154.0761 91° East 518 596 40,000  Level FlightAware Transoceanic
10:13AM 41.1011 -153.8906 91° East 518 596 40,000  Level FlightAware Transoceanic
10:14AM 41.0992 -153.7051 91° East 518 596 40,000  Level FlightAware Transoceanic
10:15AM 41.0971 -153.5196 91° East 518 596 40,000  Level FlightAware Transoceanic
10:15AM 41.1000 -153.4833 91° East 516 594 40,000  Level Oakland Oceanic (ODAPS)
10:16AM 41.0947 -153.3342 91° East 518 596 40,000  Level FlightAware Transoceanic
10:17AM 41.0919 -153.1487 91° East 518 596 40,000  Level FlightAware Transoceanic
10:18AM 41.0889 -152.9633 91° East 518 596 40,000  Level FlightAware Transoceanic
10:19AM 41.0856 -152.7779 91° East 518 596 40,000  Level FlightAware Transoceanic
10:20AM 41.0819 -152.5925 92° East 518 596 40,000  Level FlightAware Transoceanic
10:21AM 41.0798 -152.3823 92° East 516 594 40,000  Level FlightAware Transoceanic
10:22AM 41.0754 -152.1988 92° East 516 594 40,000  Level FlightAware Transoceanic
10:23AM 41.0707 -152.0154 92° East 516 594 40,000  Level FlightAware Transoceanic
10:24AM 41.0657 -151.8320 92° East 516 594 40,000  Level FlightAware Transoceanic
10:25AM 41.0604 -151.6487 92° East 516 594 40,000  Level FlightAware Transoceanic
10:26AM 41.0549 -151.4653 92° East 516 594 40,000  Level FlightAware Transoceanic
10:27AM 41.0490 -151.2820 92° East 516 594 40,000  Level FlightAware Transoceanic
10:28AM 41.0429 -151.0988 93° East 516 594 40,000  Level FlightAware Transoceanic
10:29AM 41.0365 -150.9156 93° East 516 594 40,000  Level FlightAware Transoceanic
10:29AM 41.0333 -150.8167 93° East 529 609 40,000  Level Oakland Oceanic (ODAPS)
10:30AM 41.0298 -150.7324 93° East 516 594 40,000  Level FlightAware Transoceanic
10:31AM 41.0228 -150.5492 93° East 516 594 40,000  Level FlightAware Transoceanic
10:32AM 41.0155 -150.3661 93° East 516 594 40,000  Level FlightAware Transoceanic
10:33AM 41.0079 -150.1830 93° East 516 594 40,000  Level FlightAware Transoceanic
10:33AM 41.0000 -150.0000 94° East 536 617 40,000  Level Oakland Oceanic (ODAPS)
10:34AM 41.0000 -150.0000 94° East 516 594 40,000  Level FlightAware Transoceanic
10:35AM 40.9772 -149.6029 94° East 529 609 40,000  Level FlightAware Transoceanic
10:36AM 40.9653 -149.4045 95° East 529 609 40,000  Level FlightAware Transoceanic
10:37AM 40.9530 -149.2061 95° East 529 609 40,000  Level FlightAware Transoceanic
10:38AM 40.9404 -149.0078 95° East 529 609 40,000  Level FlightAware Transoceanic
10:39AM 40.9290 -148.8325 95° East 536 617 40,000  Level FlightAware Transoceanic
10:40AM 40.9160 -148.6382 95° East 536 617 40,000  Level FlightAware Transoceanic
10:41AM 40.9027 -148.4439 95° East 536 617 40,000  Level FlightAware Transoceanic
10:42AM 40.8891 -148.2497 95° East 536 617 40,000  Level FlightAware Transoceanic
10:43AM 40.8751 -148.0556 95° East 536 617 40,000  Level FlightAware Transoceanic
10:43AM 40.8833 -148.1167 95° East 542 624 40,000  Level Oakland Oceanic (ODAPS)
10:44AM 40.8609 -147.8616 96° East 536 617 40,000  Level FlightAware Transoceanic
10:45AM 40.8463 -147.6677 96° East 536 617 40,000  Level FlightAware Transoceanic
10:46AM 40.8313 -147.4739 96° East 536 617 40,000  Level FlightAware Transoceanic
10:47AM 40.8161 -147.2801 96° East 536 617 40,000  Level FlightAware Transoceanic
10:48AM 40.8005 -147.0865 96° East 536 617 40,000  Level FlightAware Transoceanic
10:49AM 40.7922 -146.9450 96° East 542 624 40,000  Level FlightAware Transoceanic
10:50AM 40.7758 -146.7500 96° East 542 624 40,000  Level FlightAware Transoceanic
10:51AM 40.7591 -146.5552 97° East 542 624 40,000  Level FlightAware Transoceanic
10:52AM 40.7421 -146.3604 97° East 542 624 40,000  Level FlightAware Transoceanic
10:53AM 40.7248 -146.1658 97° East 542 624 40,000  Level FlightAware Transoceanic
10:54AM 40.7071 -145.9712 97° East 542 624 40,000  Level FlightAware Transoceanic
10:55AM 40.6892 -145.7767 97° East 542 624 40,000  Level FlightAware Transoceanic
10:56AM 40.6709 -145.5824 97° East 542 624 40,000  Level FlightAware Transoceanic
10:57AM 40.6522 -145.3882 97° East 542 624 40,000  Level FlightAware Transoceanic
10:57AM 40.6500 -145.3833 97° East 550 633 40,000  Level Oakland Oceanic (ODAPS)
10:58AM 40.6333 -145.1940 97° East 542 624 40,000  Level FlightAware Transoceanic
10:59AM 40.6140 -145.0000 98° East 542 624 40,000  Level FlightAware Transoceanic
11:00AM 40.5944 -144.8061 98° East 542 624 40,000  Level FlightAware Transoceanic
11:01AM 40.5744 -144.6123 98° East 542 624 40,000  Level FlightAware Transoceanic
11:02AM 40.5542 -144.4186 98° East 542 624 40,000  Level FlightAware Transoceanic
11:03AM 40.5272 -144.1784 98° East 550 633 40,000  Level FlightAware Transoceanic
11:04AM 40.5055 -143.9780 98° East 550 633 40,000  Level FlightAware Transoceanic
11:05AM 40.4835 -143.7777 98° East 550 633 40,000  Level FlightAware Transoceanic
11:06AM 40.4611 -143.5776 98° East 550 633 40,000  Level FlightAware Transoceanic
11:07AM 40.4384 -143.3776 99° East 550 633 40,000  Level FlightAware Transoceanic
11:08AM 40.4154 -143.1777 99° East 550 633 40,000  Level FlightAware Transoceanic
11:09AM 40.3920 -142.9780 99° East 550 633 40,000  Level FlightAware Transoceanic
11:10AM 40.3682 -142.7784 99° East 550 633 40,000  Level FlightAware Transoceanic
11:11AM 40.3441 -142.5790 99° East 550 633 40,000  Level FlightAware Transoceanic
11:11AM 40.3500 -142.6167 99° East 558 642 40,000  Level Oakland Oceanic (ODAPS)
11:12AM 40.3197 -142.3797 99° East 550 633 40,000  Level FlightAware Transoceanic
11:13AM 40.2949 -142.1806 99° East 550 633 40,000  Level FlightAware Transoceanic
11:14AM 40.2698 -141.9816 99° East 550 633 40,000  Level FlightAware Transoceanic
11:15AM 40.2443 -141.7827 100° East 550 633 40,000  Level FlightAware Transoceanic
11:16AM 40.2185 -141.5840 100° East 550 633 40,000  Level FlightAware Transoceanic
11:17AM 40.1958 -141.4056 100° East 558 642 40,000  Level FlightAware Transoceanic
11:18AM 40.1689 -141.2043 100° East 558 642 40,000  Level FlightAware Transoceanic
11:19AM 40.1416 -141.0032 100° East 558 642 40,000  Level FlightAware Transoceanic
11:20AM 40.1140 -140.8022 100° East 558 642 40,000  Level FlightAware Transoceanic
11:21AM 40.0860 -140.6014 100° East 558 642 40,000  Level FlightAware Transoceanic
11:22AM 40.0577 -140.4008 101° East 558 642 40,000  Level FlightAware Transoceanic
11:23AM 40.0290 -140.2003 101° East 558 642 40,000  Level FlightAware Transoceanic
11:24AM 40.0000 -140.0000 94° East 558 642 40,000  Level FlightAware Transoceanic
11:24AM 40.0000 -140.0000 94° East 564 649 40,000  Level Oakland Oceanic (ODAPS)
11:24AM 39.9833 -139.8167 94° East 567 652 40,000  Level Oakland Oceanic (ODAPS)
11:25AM 39.9883 -139.7934 94° East 558 642 40,000  Level FlightAware Transoceanic
11:26AM 39.9761 -139.5869 94° East 558 642 40,000  Level FlightAware Transoceanic
11:27AM 39.9636 -139.3804 95° East 558 642 40,000  Level FlightAware Transoceanic
11:28AM 39.9508 -139.1741 95° East 558 642 40,000  Level FlightAware Transoceanic
11:29AM 39.9376 -138.9678 95° East 558 642 40,000  Level FlightAware Transoceanic
11:30AM 39.9256 -138.7863 95° East 564 649 40,000  Level FlightAware Transoceanic
11:31AM 39.9060 -138.5759 95° East 567 652 40,000  Level FlightAware Transoceanic
11:32AM 39.8918 -138.3694 95° East 567 652 40,000  Level FlightAware Transoceanic
11:33AM 39.8772 -138.1629 95° East 567 652 40,000  Level FlightAware Transoceanic
11:34AM 39.8623 -137.9566 95° East 567 652 40,000  Level FlightAware Transoceanic
11:35AM 39.8470 -137.7503 96° East 567 652 40,000  Level FlightAware Transoceanic
11:36AM 39.8314 -137.5442 96° East 567 652 40,000  Level FlightAware Transoceanic
11:37AM 39.8154 -137.3381 96° East 567 652 40,000  Level FlightAware Transoceanic
11:38AM 39.7990 -137.1322 96° East 567 652 40,000  Level FlightAware Transoceanic
11:38AM 39.7833 -136.9667 96° East 577 664 40,000  Level Oakland Oceanic (ODAPS)
11:39AM 39.7823 -136.9263 96° East 567 652 40,000  Level FlightAware Transoceanic
11:40AM 39.7652 -136.7205 96° East 567 652 40,000  Level FlightAware Transoceanic
11:41AM 39.7477 -136.5149 96° East 567 652 40,000  Level FlightAware Transoceanic
11:42AM 39.7299 -136.3093 96° East 567 652 40,000  Level FlightAware Transoceanic
11:43AM 39.7117 -136.1039 97° East 567 652 40,000  Level FlightAware Transoceanic
11:44AM 39.6932 -135.8985 97° East 567 652 40,000  Level FlightAware Transoceanic
11:45AM 39.6755 -135.7265 97° East 577 664 40,000  Level FlightAware Transoceanic
11:46AM 39.6562 -135.5202 97° East 577 664 40,000  Level FlightAware Transoceanic
11:47AM 39.6366 -135.3140 97° East 577 664 40,000  Level FlightAware Transoceanic
11:48AM 39.6166 -135.1079 97° East 577 664 40,000  Level FlightAware Transoceanic
11:49AM 39.5962 -134.9019 97° East 577 664 40,000  Level FlightAware Transoceanic
11:50AM 39.5755 -134.6961 98° East 577 664 40,000  Level FlightAware Transoceanic
11:51AM 39.5545 -134.4904 98° East 577 664 40,000  Level FlightAware Transoceanic
11:52AM 39.5330 -134.2848 98° East 577 664 40,000  Level FlightAware Transoceanic
11:52AM 39.5167 -134.1333 98° East 575 662 40,000  Level Oakland Oceanic (ODAPS)
11:53AM 39.5112 -134.0793 98° East 577 664 40,000  Level FlightAware Transoceanic
11:54AM 39.4891 -133.8740 98° East 577 664 40,000  Level FlightAware Transoceanic
11:55AM 39.4665 -133.6688 98° East 577 664 40,000  Level FlightAware Transoceanic
11:56AM 39.4436 -133.4638 98° East 577 664 40,000  Level FlightAware Transoceanic
11:57AM 39.4204 -133.2588 98° East 577 664 40,000  Level FlightAware Transoceanic
11:58AM 39.3840 -132.9463 99° East 575 662 40,000  Level FlightAware Transoceanic
11:59AM 39.3607 -132.7489 99° East 575 662 40,000  Level FlightAware Transoceanic
12:00PM 39.3371 -132.5516 99° East 575 662 40,000  Level FlightAware Transoceanic
12:01PM 39.3131 -132.3545 99° East 575 662 40,000  Level FlightAware Transoceanic
12:02PM 39.2889 -132.1575 99° East 575 662 40,000  Level FlightAware Transoceanic
12:03PM 39.2643 -131.9606 99° East 575 662 40,000  Level FlightAware Transoceanic
12:04PM 39.2393 -131.7639 99° East 575 662 40,000  Level FlightAware Transoceanic
12:05PM 39.2140 -131.5674 99° East 575 662 40,000  Level FlightAware Transoceanic
12:06PM 39.1884 -131.3709 100° East 575 662 40,000  Level FlightAware Transoceanic
12:06PM 39.1833 -131.3167 100° East 568 654 40,000  Level Oakland Oceanic (ODAPS)
12:07PM 39.1625 -131.1746 100° East 575 662 40,000  Level FlightAware Transoceanic
12:08PM 39.1362 -130.9785 100° East 575 662 40,000  Level FlightAware Transoceanic
12:09PM 39.1096 -130.7825 100° East 575 662 40,000  Level FlightAware Transoceanic
12:10PM 39.0827 -130.5866 100° East 575 662 40,000  Level FlightAware Transoceanic
12:11PM 39.0555 -130.3909 100° East 575 662 40,000  Level FlightAware Transoceanic
12:12PM 39.0271 -130.1877 100° East 568 654 40,000  Level FlightAware Transoceanic
12:13PM 39.0000 -130.0000 102° East 568 654 40,000  Level FlightAware Transoceanic
12:13PM 39.0000 -130.0000 102° East 560 644 40,000  Level Oakland Oceanic (ODAPS)
12:14PM 38.9668 -129.7986 102° East 568 654 40,000  Level FlightAware Transoceanic
12:15PM 38.9333 -129.5974 102° East 568 654 40,000  Level FlightAware Transoceanic
12:16PM 38.8995 -129.3965 102° East 568 654 40,000  Level FlightAware Transoceanic
12:17PM 38.8653 -129.1957 102° East 568 654 40,000  Level FlightAware Transoceanic
12:18PM 38.8308 -128.9951 103° East 568 654 40,000  Level FlightAware Transoceanic
12:19PM 38.7959 -128.7946 103° East 560 644 40,000  Level FlightAware Transoceanic
12:20PM 38.7607 -128.5944 103° East 560 644 40,000  Level FlightAware Transoceanic
12:20PM 38.7667 -128.6000 103° East 558 642 40,000  Level Oakland Oceanic (ODAPS)
12:21PM 38.7251 -128.3944 103° East 560 644 40,000  Level FlightAware Transoceanic
12:22PM 38.6892 -128.1946 103° East 560 644 40,000  Level FlightAware Transoceanic
12:23PM 38.6530 -127.9950 103° East 560 644 40,000  Level FlightAware Transoceanic
12:24PM 38.6164 -127.7956 103° East 560 644 40,000  Level FlightAware Transoceanic
12:25PM 38.5794 -127.5964 103° East 560 644 40,000  Level FlightAware Transoceanic
12:26PM 38.5437 -127.3987 104° East 558 642 40,000  Level FlightAware Transoceanic
12:26PM 38.5603 -127.4914 111° Southeast 557 641 40,000  Level Oakland Center
12:27PM 38.5054 -127.1993 104° East 558 642 40,000 -120 Level FlightAware Transoceanic
12:27PM 38.5244 -127.3033 104° East 552 635 39,900  Descending Oakland Center
12:28PM 38.4667 -127.0000 111° Southeast 558 642 40,000 60 Climbing FlightAware Transoceanic
12:28PM 38.4892 -127.1139 103° East 551 634 40,000  Level Oakland Center
12:29PM 38.4158 -126.8324 111° Southeast 558 642 40,000  Level FlightAware Transoceanic
12:29PM 38.4364 -126.8908 107° East 550 633 40,000  Level Oakland Center
12:30PM 38.3646 -126.6650 111° Southeast 558 642 40,000 -120 Level FlightAware Transoceanic
12:30PM 38.3797 -126.7089 112° Southeast 553 636 39,900  Descending Oakland Center
12:31PM 38.3132 -126.4979 111° Southeast 558 642 40,000  Climbing FlightAware Transoceanic
12:31PM 38.3244 -126.5283 111° Southeast 551 634 39,900  Descending Oakland Center
12:32PM 38.2689 -126.3500 112° Southeast 546 628 40,000  Climbing Oakland Center
12:33PM 38.2186 -126.1864 111° Southeast 552 635 40,000 -60 Level Oakland Center
12:34PM 38.1503 -125.9706 112° Southeast 551 634 39,900  Descending Oakland Center
12:35PM 38.0947 -125.7914 111° Southeast 548 631 40,000 -120 Climbing Oakland Center
12:36PM 38.0367 -125.6122 112° Southeast 550 633 39,700 -600 Descending Oakland Center
12:37PM 37.9825 -125.4325 111° Southeast 549 632 38,900 -360 Descending Oakland Center
12:38PM 37.9353 -125.2531 108° East 541 623 39,000  Climbing Oakland Center
12:39PM 37.8861 -125.0728 109° East 542 624 38,900 -60 Descending Oakland Center
12:40PM 37.8369 -124.8939 109° East 542 624 38,900  Level Oakland Center
12:41PM 37.7875 -124.7117 109° East 547 629 38,900  Level Oakland Center
12:42PM 37.7361 -124.5297 110° East 552 635 39,000  Climbing Oakland Center
12:43PM 37.6758 -124.3150 109° East 546 628 38,900  Descending Oakland Center
12:44PM 37.6261 -124.1353 109° East 545 627 39,000  Climbing Oakland Center
12:45PM 37.5753 -123.9556 110° East 545 627 38,900  Descending Oakland Center
12:46PM 37.5231 -123.7753 110° East 549 632 39,000  Climbing Oakland Center
12:47PM 37.4711 -123.5969 110° East 548 631 38,900  Descending Oakland Center
12:51PM 37.2636 -122.8900 110° East 538 619 39,000  Climbing FlightAware ADS-B
12:54PM 36.9798 -122.3480 123° Southeast 540 621 39,000  Level FlightAware ADS-B
12:55PM 36.9050 -122.2110 124° Southeast 534 615 39,000  Level FlightAware ADS-B
12:56PM 36.8368 -122.0860 124° Southeast 533 613 39,000  Level FlightAware ADS-B
12:59PM 36.6041 -121.6630 124° Southeast 533 613 39,000  Level FlightAware ADS-B
12:59PM 36.5683 -121.6008 124° Southeast 531 611 39,000  Level Los Angeles Center
01:00PM 36.5011 -121.4797 125° Southeast 533 613 39,000 -60 Level Oakland Center
01:01PM 36.4006 -121.2986 125° Southeast 532 612 38,900 -60 Descending Oakland Center
01:02PM 36.3150 -121.1497 125° Southeast 532 612 38,900  Level Oakland Center
01:03PM 36.2303 -120.9994 125° Southeast 531 611 39,000  Climbing Oakland Center
01:04PM 36.1464 -120.8483 124° Southeast 532 612 38,900 -60 Descending Oakland Center
01:05PM 36.0947 -120.6781 111° Southeast 533 613 38,900  Level Oakland Center
01:07PM 36.0606 -120.4931 103° East 543 625 39,000  Climbing Oakland Center
01:08PM 36.0231 -120.3122 104° East 544 626 38,900  Descending Oakland Center
01:09PM 35.9222 -120.1828 134° Southeast 523 602 39,000  Climbing Oakland Center
01:10PM 35.8008 -120.0842 147° Southeast 518 596 39,000 -60 Level Oakland Center
01:11PM 35.6792 -119.9842 146° Southeast 521 600 38,900 -840 Descending Oakland Center
01:12PM 35.5594 -119.8861 146° Southeast 512 589 37,300 -2,220 Descending Oakland Center
01:13PM 35.4389 -119.7886 147° Southeast 515 593 34,400 -2,460 Descending Oakland Center
01:14PM 35.3156 -119.6903 147° Southeast 522 601 32,400 -2,520 Descending Oakland Center
01:15PM 35.1975 -119.5944 146° Southeast 513 590 29,300 -2,880 Descending Oakland Center
01:16PM 35.0603 -119.4753 145° Southeast 507 583 26,500 -2,160 Descending Oakland Center
01:17PM 34.9514 -119.3833 145° Southeast 483 556 25,000 -1,620 Descending Oakland Center
01:18PM 34.8494 -119.2956 145° Southeast 463 533 23,300 -1,680 Descending Oakland Center
01:19PM 34.7497 -119.2111 145° Southeast 449 517 21,600 -1,680 Descending Oakland Center
01:20PM 34.6114 -119.0953 145° Southeast 427 491 19,300 -1,620 Descending Los Angeles Center
01:21PM 34.5183 -119.0158 145° Southeast 410 472 17,700 -1,560 Descending Los Angeles Center
01:22PM 34.4278 -118.9392 145° Southeast 396 456 16,100 -1,560 Descending Los Angeles Center
01:23PM 34.3353 -118.8725 149° Southeast 384 442 14,500 -1,560 Descending Los Angeles Center
01:24PM 34.2356 -118.8361 163° South 374 430 12,900 -1,620 Descending Los Angeles Center
01:25PM 34.1197 -118.7944 163° South 361 415 11,200 -1,200 Descending Los Angeles Center
01:26PM 34.0581 -118.7128 132° Southeast 328 377 10,400 -840 Descending Los Angeles Center
01:27PM 34.0381 -118.6094 103° East 314 361 9,500 -1,080 Descending Los Angeles Center
01:28PM 34.0178 -118.5003 103° East 310 357 8,200 -1,020 Descending Los Angeles Center
01:29PM 34.0172 -118.4142 90° East 283 326 7,400 -780 Descending Los Angeles Center
01:31PM 34.0303 -118.3211 80° East 282 325 6,600 -960 Descending Los Angeles Center
01:32PM 34.0431 -118.2367 80° East 263 303 5,500 -1,680 Descending Los Angeles Center
01:33PM 34.0572 -118.1419 80° East 244 281 3,200 -1,440 Descending Los Angeles Center
01:34PM 34.0161 -118.0967 138° Southeast 236 272 2,600 -540 Descending Los Angeles Center
01:35PM 33.9794 -118.1433 227° Southwest 217 250 2,200 -240 Descending Los Angeles Center
01:36PM 33.9719 -118.2142 263° West 216 249 2,200  Level Los Angeles Center
01:37PM 33.9658 -118.2767 263° West 204 235 2,200 -540 Level Los Angeles Center
01:38PM 33.9586 -118.3447 263° West 184 212 1,200 -900 Descending Los Angeles Center
01:39PM 33.9542 -118.3928 264° West 163 188 400 -480 Descending Los Angeles Center
01:40PM 33.9492 -118.4378 262° West 157 181 200 -240 Descending Los Angeles Center